createdAt,value
2023-08-11T00:02:24.609Z,14.23
2023-08-11T00:04:55.874Z,12.50
2023-08-11T00:07:26.461Z,12.10
2023-08-11T00:09:58.510Z,14.18
2023-08-11T00:12:29.117Z,13.55
2023-08-11T00:14:59.686Z,12.98
2023-08-11T00:17:30.852Z,13.05
2023-08-11T00:20:01.973Z,12.45
2023-08-11T00:22:32.547Z,12.63
2023-08-11T00:25:03.555Z,12.75
2023-08-11T00:27:34.102Z,13.45
2023-08-11T00:30:06.576Z,13.18
2023-08-11T00:32:37.417Z,12.78
2023-08-11T00:35:08.697Z,14.25
2023-08-11T00:37:39.570Z,13.00
2023-08-11T00:40:10.819Z,12.60
2023-08-11T00:42:43.554Z,12.47
2023-08-11T00:45:14.465Z,12.10
2023-08-11T00:47:46.424Z,13.25
2023-08-11T00:50:19.849Z,10.95
2023-08-11T00:52:51.598Z,11.22
2023-08-11T00:55:23.183Z,10.85
2023-08-11T00:57:55.159Z,12.28
2023-08-11T01:00:28.982Z,13.93
2023-08-11T01:03:01.148Z,10.70
2023-08-11T01:05:33.829Z,11.10
2023-08-11T01:08:19.270Z,10.20
2023-08-11T01:11:07.388Z,10.50
2023-08-11T01:13:41.053Z,10.53
2023-08-11T01:16:13.784Z,9.48
2023-08-11T01:18:45.275Z,10.40
2023-08-11T01:21:17.984Z,10.98
2023-08-11T01:23:50.237Z,9.73
2023-08-11T01:26:22.562Z,9.38
2023-08-11T01:28:55.598Z,9.63
2023-08-11T01:31:26.252Z,9.70
2023-08-11T01:33:56.904Z,10.00
2023-08-11T01:36:27.457Z,9.88
2023-08-11T01:38:59.562Z,10.03
2023-08-11T01:41:32.551Z,10.78
2023-08-11T01:44:03.630Z,11.97
2023-08-11T01:46:35.084Z,10.20
2023-08-11T01:49:06.138Z,9.98
2023-08-11T01:51:37.913Z,10.10
2023-08-11T01:54:11.625Z,10.72
2023-08-11T01:56:44.106Z,9.20
2023-08-11T01:59:19.139Z,8.63
2023-08-11T02:01:49.997Z,9.68
2023-08-11T02:04:20.714Z,8.93
2023-08-11T02:06:51.284Z,9.38
2023-08-11T02:09:22.446Z,8.55
2023-08-11T02:11:53.329Z,8.40
2023-08-11T02:14:25.642Z,9.38
2023-08-11T02:16:57.664Z,9.80
2023-08-11T02:19:28.459Z,8.60
2023-08-11T02:21:59.188Z,9.13
2023-08-11T02:24:30.037Z,9.85
2023-08-11T02:27:00.839Z,10.40
2023-08-11T02:29:31.489Z,9.60
2023-08-11T02:32:05.157Z,9.80
2023-08-11T02:34:36.174Z,9.70
2023-08-11T02:37:07.003Z,9.93
2023-08-11T02:39:40.426Z,8.40
2023-08-11T02:42:10.292Z,8.33
2023-08-11T02:44:43.150Z,7.97
2023-08-11T02:47:16.116Z,8.40
2023-08-11T02:49:49.726Z,7.90
2023-08-11T02:52:21.274Z,8.08
2023-08-11T02:54:51.827Z,7.28
2023-08-11T02:57:22.384Z,8.03
2023-08-11T02:59:53.050Z,8.15
2023-08-11T03:02:23.641Z,8.05
2023-08-11T03:04:54.293Z,7.75
2023-08-11T03:07:24.893Z,7.58
2023-08-11T03:09:57.012Z,6.80
2023-08-11T03:12:29.083Z,7.28
2023-08-11T03:15:00.093Z,7.28
2023-08-11T03:17:30.671Z,6.53
2023-08-11T03:20:01.487Z,6.15
2023-08-11T03:22:33.790Z,6.30
2023-08-11T03:25:05.115Z,6.42
2023-08-11T03:27:35.991Z,6.20
2023-08-11T03:30:08.087Z,6.37
2023-08-11T03:32:42.509Z,5.97
2023-08-11T03:35:13.455Z,6.37
2023-08-11T03:37:43.961Z,6.12
2023-08-11T03:40:15.106Z,6.50
2023-08-11T03:42:45.605Z,5.30
2023-08-11T03:45:17.993Z,6.08
2023-08-11T03:47:48.651Z,5.53
2023-08-11T03:50:19.501Z,6.12
2023-08-11T03:52:50.118Z,5.95
2023-08-11T03:55:21.072Z,6.03
2023-08-11T03:57:52.950Z,6.20
2023-08-11T04:00:25.619Z,6.95
2023-08-11T04:02:56.226Z,6.03
2023-08-11T04:05:26.705Z,6.50
2023-08-11T04:07:59.373Z,6.75
2023-08-11T04:10:29.976Z,6.37
2023-08-11T04:13:00.779Z,6.20
2023-08-11T04:15:33.087Z,6.30
2023-08-11T04:18:03.891Z,21.42
2023-08-11T04:20:35.824Z,12.58
2023-08-11T04:23:06.372Z,6.78
2023-08-11T04:25:36.899Z,7.55
2023-08-11T04:28:07.659Z,6.30
2023-08-11T04:30:38.735Z,6.47
2023-08-11T04:33:09.674Z,7.28
2023-08-11T04:35:40.316Z,6.67
2023-08-11T04:38:11.063Z,6.65
2023-08-11T04:40:41.931Z,6.95
2023-08-11T04:43:12.488Z,6.15
2023-08-11T04:45:44.692Z,6.78
2023-08-11T04:48:15.212Z,6.60
2023-08-11T04:50:53.265Z,6.90
2023-08-11T04:53:24.308Z,6.70
2023-08-11T04:55:56.082Z,7.05
2023-08-11T04:58:27.027Z,6.40
2023-08-11T05:00:57.632Z,6.22
2023-08-11T05:03:28.417Z,6.97
2023-08-11T05:05:58.936Z,8.30
2023-08-11T05:08:30.036Z,8.20
2023-08-11T05:11:00.639Z,7.97
2023-08-11T05:13:31.312Z,6.42
2023-08-11T05:16:01.939Z,5.90
2023-08-11T05:18:42.821Z,6.47
2023-08-11T05:21:07.082Z,6.50
2023-08-11T05:23:37.878Z,6.55
2023-08-11T05:26:08.597Z,5.60
2023-08-11T05:28:42.124Z,5.65
2023-08-11T05:31:12.821Z,5.17
2023-08-11T05:33:43.249Z,4.80
2023-08-11T05:36:13.856Z,4.67
2023-08-11T05:38:44.466Z,4.37
2023-08-11T05:41:15.356Z,4.80
2023-08-11T05:43:47.923Z,4.95
2023-08-11T05:46:18.467Z,5.37
2023-08-11T05:48:49.552Z,5.58
2023-08-11T05:51:20.233Z,5.30
2023-08-11T05:53:53.120Z,5.22
2023-08-11T05:56:23.038Z,4.87
2023-08-11T05:58:53.624Z,5.25
2023-08-11T06:01:24.612Z,4.70
2023-08-11T06:03:55.301Z,4.87
2023-08-11T06:06:25.905Z,4.83
2023-08-11T06:08:57.233Z,4.92
2023-08-11T06:11:27.800Z,4.37
2023-08-11T06:13:58.384Z,4.58
2023-08-11T06:16:29.379Z,4.58
2023-08-11T06:19:01.572Z,4.72
2023-08-11T06:21:32.166Z,5.15
2023-08-11T06:24:04.193Z,4.55
2023-08-11T06:26:36.343Z,4.67
2023-08-11T06:29:06.960Z,5.03
2023-08-11T06:31:39.874Z,5.05
2023-08-11T06:34:11.037Z,4.97
2023-08-11T06:36:41.730Z,5.20
2023-08-11T06:39:12.435Z,5.00
2023-08-11T06:41:43.284Z,4.60
2023-08-11T06:44:13.816Z,4.42
2023-08-11T06:46:45.176Z,4.50
2023-08-11T06:49:15.786Z,4.42
2023-08-11T06:51:46.384Z,4.90
2023-08-11T06:54:17.092Z,4.62
2023-08-11T06:56:47.894Z,4.00
2023-08-11T06:59:18.786Z,3.95
2023-08-11T07:01:49.310Z,4.08
2023-08-11T07:04:20.905Z,3.98
2023-08-11T07:06:52.356Z,3.42
2023-08-11T07:09:23.011Z,3.90
2023-08-11T07:11:53.688Z,3.70
2023-08-11T07:14:24.161Z,3.95
2023-08-11T07:16:55.010Z,3.40
2023-08-11T07:19:25.634Z,3.52
2023-08-11T07:22:00.706Z,3.25
2023-08-11T07:24:31.494Z,3.65
2023-08-11T07:27:02.090Z,3.50
2023-08-11T07:29:32.609Z,3.20
2023-08-11T07:32:05.390Z,3.45
2023-08-11T07:34:37.669Z,3.05
2023-08-11T07:37:09.017Z,3.17
2023-08-11T07:39:39.960Z,3.60
2023-08-11T07:42:11.443Z,3.40
2023-08-11T07:44:41.965Z,3.70
2023-08-11T07:47:14.330Z,3.10
2023-08-11T07:49:45.625Z,3.45
2023-08-11T07:52:16.727Z,2.85
2023-08-11T07:54:47.337Z,3.00
2023-08-11T07:57:19.495Z,2.75
2023-08-11T07:59:50.576Z,2.83
2023-08-11T08:02:21.437Z,3.27
2023-08-11T08:04:57.560Z,3.15
2023-08-11T08:07:26.070Z,2.80
2023-08-11T08:09:56.879Z,3.08
2023-08-11T08:12:27.514Z,2.85
2023-08-11T08:14:58.542Z,3.25
2023-08-11T08:17:30.684Z,2.77
2023-08-11T08:20:01.439Z,3.35
2023-08-11T08:22:31.928Z,9.93
2023-08-11T08:25:08.814Z,4.50
2023-08-11T08:27:41.687Z,11.55
2023-08-11T08:30:13.525Z,4.47
2023-08-11T08:32:44.858Z,2.70
2023-08-11T08:35:15.520Z,3.45
2023-08-11T08:37:46.860Z,2.67
2023-08-11T08:40:19.160Z,2.70
2023-08-11T08:42:51.764Z,2.75
2023-08-11T08:45:24.553Z,3.10
2023-08-11T08:47:59.183Z,2.90
2023-08-11T08:50:30.694Z,3.30
2023-08-11T08:53:02.375Z,3.05
2023-08-11T08:55:33.357Z,2.87
2023-08-11T08:58:04.073Z,2.90
2023-08-11T09:00:35.348Z,2.77
2023-08-11T09:03:06.941Z,3.05
2023-08-11T09:05:38.521Z,2.80
2023-08-11T09:08:09.201Z,2.65
2023-08-11T09:10:40.651Z,2.58
2023-08-11T09:13:12.711Z,2.60
2023-08-11T09:15:44.445Z,2.55
2023-08-11T09:18:18.213Z,2.85
2023-08-11T09:20:50.319Z,2.75
2023-08-11T09:23:22.871Z,3.00
2023-08-11T09:25:56.286Z,2.33
2023-08-11T09:28:28.082Z,2.72
2023-08-11T09:30:59.637Z,2.33
2023-08-11T09:33:31.266Z,2.35
2023-08-11T09:36:03.971Z,2.70
2023-08-11T09:38:35.799Z,2.40
2023-08-11T09:41:09.942Z,2.40
2023-08-11T09:43:40.784Z,2.87
2023-08-11T09:46:18.775Z,1.90
2023-08-11T09:48:43.544Z,2.00
2023-08-11T09:51:14.311Z,2.30
2023-08-11T09:53:46.641Z,2.75
2023-08-11T09:56:20.722Z,1.70
2023-08-11T09:58:53.720Z,1.47
2023-08-11T10:01:24.851Z,1.80
2023-08-11T10:03:59.032Z,1.98
2023-08-11T10:06:32.010Z,2.22
2023-08-11T10:09:04.329Z,1.98
2023-08-11T10:11:37.519Z,1.98
2023-08-11T10:14:10.572Z,2.40
2023-08-11T10:16:41.879Z,2.00
2023-08-11T10:19:14.351Z,1.82
2023-08-11T10:21:45.302Z,1.87
2023-08-11T10:24:17.474Z,1.90
2023-08-11T10:26:49.076Z,1.90
2023-08-11T10:29:22.113Z,1.70
2023-08-11T10:32:00.241Z,1.92
2023-08-11T10:34:30.742Z,1.75
2023-08-11T10:37:02.735Z,2.10
2023-08-11T10:39:35.147Z,2.20
2023-08-11T10:42:05.567Z,2.20
2023-08-11T10:44:36.273Z,2.45
2023-08-11T10:47:07.417Z,2.95
2023-08-11T10:49:40.998Z,2.20
2023-08-11T10:52:16.933Z,2.45
2023-08-11T10:54:53.627Z,2.80
2023-08-11T10:57:25.920Z,2.55
2023-08-11T10:59:56.422Z,2.25
2023-08-11T11:02:27.004Z,2.20
2023-08-11T11:04:58.807Z,2.42
2023-08-11T11:07:31.109Z,2.47
2023-08-11T11:10:02.011Z,2.40
2023-08-11T11:12:35.153Z,2.22
2023-08-11T11:15:06.629Z,2.08
2023-08-11T11:17:37.265Z,2.27
2023-08-11T11:20:09.439Z,2.25
2023-08-11T11:22:39.997Z,2.20
2023-08-11T11:25:13.361Z,1.75
2023-08-11T11:27:44.448Z,1.90
2023-08-11T11:30:15.745Z,2.08
2023-08-11T11:32:49.175Z,2.05
2023-08-11T11:35:20.404Z,1.70
2023-08-11T11:37:50.980Z,2.00
2023-08-11T11:40:21.850Z,2.10
2023-08-11T11:42:52.587Z,1.92
2023-08-11T11:45:23.870Z,2.27
2023-08-11T11:47:56.310Z,1.80
2023-08-11T11:50:30.563Z,1.90
2023-08-11T11:53:01.220Z,1.98
2023-08-11T11:55:32.467Z,2.02
2023-08-11T11:58:04.730Z,2.00
2023-08-11T12:00:35.262Z,2.12
2023-08-11T12:03:06.188Z,2.30
2023-08-11T12:05:36.994Z,2.50
2023-08-11T12:08:26.991Z,2.10
2023-08-11T12:10:57.725Z,2.17
2023-08-11T12:13:28.674Z,2.30
2023-08-11T12:16:01.620Z,1.95
2023-08-11T12:18:32.920Z,1.77
2023-08-11T12:21:04.637Z,1.77
2023-08-11T12:23:35.374Z,2.47
2023-08-11T12:26:06.622Z,2.40
2023-08-11T12:28:37.353Z,1.92
2023-08-11T12:31:09.390Z,2.10
2023-08-11T12:33:41.753Z,2.12
2023-08-11T12:36:12.466Z,1.95
2023-08-11T12:38:43.041Z,2.08
2023-08-11T12:41:14.056Z,2.40
2023-08-11T12:43:44.677Z,2.40
2023-08-11T12:46:15.356Z,2.17
2023-08-11T12:48:46.336Z,2.10
2023-08-11T12:51:18.460Z,2.20
2023-08-11T12:53:49.073Z,2.17
2023-08-11T12:56:20.137Z,2.35
2023-08-11T12:58:50.722Z,1.92
2023-08-11T13:01:21.349Z,1.67
2023-08-11T13:03:52.751Z,3.30
2023-08-11T13:06:23.707Z,2.12
2023-08-11T13:08:55.701Z,2.20
2023-08-11T13:11:26.180Z,2.70
2023-08-11T13:13:57.273Z,2.22
2023-08-11T13:16:28.030Z,2.05
2023-08-11T13:18:58.628Z,1.60
2023-08-11T13:21:29.155Z,2.00
2023-08-11T13:24:03.658Z,1.90
2023-08-11T13:26:36.704Z,2.00
2023-08-11T13:29:07.347Z,2.70
2023-08-11T13:31:38.400Z,1.92
2023-08-11T13:34:09.130Z,1.67
2023-08-11T13:36:41.631Z,1.75
2023-08-11T13:39:12.292Z,1.75
2023-08-11T13:41:44.014Z,1.98
2023-08-11T13:44:14.706Z,1.80
2023-08-11T13:46:45.687Z,1.52
2023-08-11T13:49:16.398Z,1.55
2023-08-11T13:51:46.859Z,1.60
2023-08-11T13:54:22.040Z,1.80
2023-08-11T13:56:52.676Z,1.40
2023-08-11T13:59:24.857Z,1.47
2023-08-11T14:01:58.330Z,1.60
2023-08-11T14:04:28.885Z,1.65
2023-08-11T14:07:13.957Z,1.40
2023-08-11T14:09:31.733Z,1.50
2023-08-11T14:12:04.775Z,1.80
2023-08-11T14:14:35.462Z,1.70
2023-08-11T14:17:06.801Z,1.70
2023-08-11T14:19:38.849Z,1.62
2023-08-11T14:22:09.603Z,1.90
2023-08-11T14:24:40.467Z,4.40
2023-08-11T14:27:11.278Z,2.00
2023-08-11T14:29:41.924Z,2.00
2023-08-11T14:32:22.972Z,1.90
2023-08-11T14:34:46.051Z,1.65
2023-08-11T14:37:17.902Z,1.67
2023-08-11T14:39:48.852Z,2.37
2023-08-11T14:42:23.078Z,1.85
2023-08-11T14:44:53.652Z,1.70
2023-08-11T14:47:25.570Z,2.10
2023-08-11T14:49:56.270Z,2.00
2023-08-11T14:52:27.676Z,2.27
2023-08-11T14:54:58.491Z,3.52
2023-08-11T14:57:29.482Z,2.10
2023-08-11T15:00:00.086Z,1.80
2023-08-11T15:02:30.726Z,2.10
2023-08-11T15:05:02.164Z,1.87
2023-08-11T15:07:32.750Z,2.87
2023-08-11T15:10:04.233Z,1.95
2023-08-11T15:12:34.763Z,1.77
2023-08-11T15:15:06.222Z,1.92
2023-08-11T15:17:36.865Z,1.70
2023-08-11T15:20:09.719Z,1.72
2023-08-11T15:22:40.327Z,1.85
2023-08-11T15:25:11.170Z,1.80
2023-08-11T15:27:41.693Z,1.82
2023-08-11T15:30:13.472Z,2.20
2023-08-11T15:32:44.935Z,1.87
2023-08-11T15:35:18.498Z,3.10
2023-08-11T15:37:49.177Z,2.40
2023-08-11T15:40:21.435Z,2.00
2023-08-11T15:42:51.970Z,2.47
2023-08-11T15:45:23.424Z,2.08
2023-08-11T15:47:54.030Z,2.00
2023-08-11T15:50:24.676Z,1.90
2023-08-11T15:52:55.181Z,2.00
2023-08-11T15:55:35.671Z,2.08
2023-08-11T15:57:57.895Z,2.25
2023-08-11T16:00:28.481Z,2.00
2023-08-11T16:03:00.993Z,1.90
2023-08-11T16:05:31.568Z,2.30
2023-08-11T16:08:02.083Z,2.33
2023-08-11T16:10:35.511Z,2.60
2023-08-11T16:13:08.855Z,2.20
2023-08-11T16:15:38.392Z,2.22
2023-08-11T16:18:10.858Z,2.08
2023-08-11T16:20:41.546Z,2.37
2023-08-11T16:23:12.803Z,2.50
2023-08-11T16:25:43.402Z,2.33
2023-08-11T16:28:16.355Z,2.60
2023-08-11T16:30:49.527Z,2.65
2023-08-11T16:33:20.086Z,2.33
2023-08-11T16:35:50.735Z,2.20
2023-08-11T16:38:24.493Z,2.55
2023-08-11T16:40:57.220Z,2.17
2023-08-11T16:43:27.863Z,2.22
2023-08-11T16:45:58.984Z,2.05
2023-08-11T16:48:29.518Z,11.00
2023-08-11T16:51:00.443Z,5.17
2023-08-11T16:53:31.040Z,2.10
2023-08-11T16:56:02.920Z,2.02
2023-08-11T16:58:33.418Z,2.40
2023-08-11T17:01:04.260Z,2.20
2023-08-11T17:03:36.709Z,2.40
2023-08-11T17:06:07.784Z,2.80
2023-08-11T17:08:38.398Z,3.10
2023-08-11T17:11:09.598Z,3.12
2023-08-11T17:13:40.093Z,2.67
2023-08-11T17:16:11.093Z,2.80
2023-08-11T17:18:43.354Z,2.62
2023-08-11T17:21:15.499Z,2.70
2023-08-11T17:23:48.479Z,2.72
2023-08-11T17:26:19.254Z,2.47
2023-08-11T17:28:52.073Z,2.10
2023-08-11T17:31:24.141Z,2.80
2023-08-11T17:33:56.352Z,2.40
2023-08-11T17:36:27.509Z,2.00
2023-08-11T17:38:59.231Z,2.30
2023-08-11T17:41:29.902Z,2.17
2023-08-11T17:44:00.375Z,2.20
2023-08-11T17:46:31.009Z,2.52
2023-08-11T17:49:01.624Z,2.60
2023-08-11T17:51:32.472Z,2.95
2023-08-11T17:54:09.723Z,2.80
2023-08-11T17:56:36.568Z,2.30
2023-08-11T17:59:07.566Z,2.65
2023-08-11T18:01:42.419Z,2.58
2023-08-11T18:04:14.761Z,2.70
2023-08-11T18:06:45.290Z,2.70
2023-08-11T18:09:15.820Z,3.02
2023-08-11T18:11:46.426Z,3.40
2023-08-11T18:14:17.358Z,3.83
2023-08-11T18:16:48.041Z,4.08
2023-08-11T18:19:18.764Z,3.77
2023-08-11T18:21:49.351Z,4.72
2023-08-11T18:24:19.836Z,4.20
2023-08-11T18:26:50.811Z,5.12
2023-08-11T18:29:22.070Z,4.67
2023-08-11T18:31:52.806Z,5.10
2023-08-11T18:34:23.369Z,4.60
2023-08-11T18:36:54.067Z,5.20
2023-08-11T18:39:24.680Z,4.85
2023-08-11T18:41:55.287Z,5.10
2023-08-11T18:44:25.995Z,5.75
2023-08-11T18:46:56.480Z,5.97
2023-08-11T18:49:29.973Z,6.80
2023-08-11T18:52:02.109Z,9.20
2023-08-11T18:54:32.932Z,9.95
2023-08-11T18:57:04.101Z,7.12
2023-08-11T18:59:34.676Z,8.30
2023-08-11T19:02:12.131Z,8.30
2023-08-11T19:04:37.572Z,6.95
2023-08-11T19:07:08.050Z,7.90
2023-08-11T19:09:38.591Z,5.40
2023-08-11T19:12:09.364Z,5.35
2023-08-11T19:14:40.434Z,5.00
2023-08-11T19:17:11.221Z,5.53
2023-08-11T19:19:42.020Z,5.40
2023-08-11T19:22:13.830Z,7.65
2023-08-11T19:24:44.308Z,5.92
2023-08-11T19:27:14.881Z,5.42
2023-08-11T19:29:45.386Z,6.33
2023-08-11T19:32:17.351Z,6.53
2023-08-11T19:34:47.867Z,5.72
2023-08-11T19:37:19.897Z,5.45
2023-08-11T19:39:50.606Z,5.85
2023-08-11T19:42:21.091Z,7.50
2023-08-11T19:44:51.776Z,6.60
2023-08-11T19:47:25.505Z,7.20
2023-08-11T19:49:56.014Z,7.85
2023-08-11T19:52:27.072Z,6.83
2023-08-11T19:54:57.567Z,7.12
2023-08-11T19:57:28.140Z,7.60
2023-08-11T19:59:58.962Z,8.40
2023-08-11T20:02:29.446Z,8.85
2023-08-11T20:05:00.542Z,6.92
2023-08-11T20:07:31.790Z,6.85
2023-08-11T20:10:04.481Z,5.70
2023-08-11T20:12:34.922Z,5.85
2023-08-11T20:15:06.335Z,6.15
2023-08-11T20:17:37.016Z,5.53
2023-08-11T20:20:08.538Z,6.10
2023-08-11T20:22:40.598Z,6.70
2023-08-11T20:25:11.346Z,5.85
2023-08-11T20:27:41.888Z,6.25
2023-08-11T20:30:14.268Z,5.80
2023-08-11T20:32:44.934Z,6.33
2023-08-11T20:35:15.632Z,6.58
2023-08-11T20:37:46.228Z,6.10
2023-08-11T20:40:16.994Z,6.22
2023-08-11T20:42:47.479Z,6.65
2023-08-11T20:45:18.761Z,6.03
2023-08-11T20:47:49.311Z,6.35
2023-08-11T20:50:20.803Z,7.00
2023-08-11T20:52:51.413Z,7.40
2023-08-11T20:55:21.946Z,17.57
2023-08-11T20:57:54.012Z,27.73
2023-08-11T21:00:24.889Z,27.35
2023-08-11T21:02:55.461Z,10.60
2023-08-11T21:05:26.325Z,6.60
2023-08-11T21:07:57.401Z,6.08
2023-08-11T21:10:29.717Z,6.03
2023-08-11T21:13:00.867Z,5.47
2023-08-11T21:15:31.408Z,6.67
2023-08-11T21:18:02.021Z,6.87
2023-08-11T21:20:32.776Z,6.70
2023-08-11T21:23:05.260Z,6.80
2023-08-11T21:25:37.454Z,7.83
2023-08-11T21:28:08.157Z,7.22
2023-08-11T21:30:40.156Z,9.00
2023-08-11T21:33:11.293Z,7.60
2023-08-11T21:35:42.386Z,7.60
2023-08-11T21:38:15.447Z,6.55
2023-08-11T21:40:45.165Z,6.80
2023-08-11T21:43:16.017Z,6.62
2023-08-11T21:45:47.728Z,6.85
2023-08-11T21:48:18.288Z,7.05
2023-08-11T21:50:48.725Z,7.53
2023-08-11T21:53:23.640Z,7.50
2023-08-11T21:55:52.214Z,7.22
2023-08-11T21:58:23.317Z,6.97
2023-08-11T22:00:53.897Z,7.05
2023-08-11T22:03:24.744Z,7.62
2023-08-11T22:05:56.725Z,7.10
2023-08-11T22:08:27.370Z,6.65
2023-08-11T22:10:58.088Z,7.65
2023-08-11T22:13:29.041Z,8.48
2023-08-11T22:15:59.743Z,8.33
2023-08-11T22:18:30.605Z,6.72
2023-08-11T22:21:04.694Z,6.92
2023-08-11T22:23:35.332Z,6.95
2023-08-11T22:26:05.865Z,7.75
2023-08-11T22:28:36.553Z,6.78
2023-08-11T22:31:07.066Z,6.92
2023-08-11T22:33:37.681Z,7.08
2023-08-11T22:36:08.637Z,7.10
2023-08-11T22:38:39.299Z,6.53
2023-08-11T22:41:10.162Z,6.42
2023-08-11T22:43:40.705Z,6.20
2023-08-11T22:46:11.418Z,6.12
2023-08-11T22:48:42.255Z,6.00
2023-08-11T22:51:12.956Z,6.22
2023-08-11T22:53:43.457Z,5.37
2023-08-11T22:56:14.104Z,8.03
2023-08-11T22:58:44.647Z,6.33
2023-08-11T23:01:16.058Z,6.58
2023-08-11T23:03:47.280Z,14.45
2023-08-11T23:06:22.162Z,5.92
2023-08-11T23:08:55.863Z,6.60
2023-08-11T23:11:26.446Z,5.72
2023-08-11T23:13:57.498Z,4.92
2023-08-11T23:16:29.846Z,5.35
2023-08-11T23:19:01.263Z,4.70
2023-08-11T23:21:31.732Z,5.17
2023-08-11T23:24:02.632Z,5.72
2023-08-11T23:26:35.761Z,5.03
2023-08-11T23:29:08.236Z,4.70
2023-08-11T23:31:43.105Z,5.10
2023-08-11T23:34:13.120Z,5.30
2023-08-11T23:36:43.752Z,5.22
2023-08-11T23:39:14.598Z,5.00
2023-08-11T23:41:45.648Z,5.03
2023-08-11T23:44:17.392Z,4.95
2023-08-11T23:46:51.051Z,5.40
2023-08-11T23:49:34.962Z,5.20
2023-08-11T23:52:07.776Z,5.60
2023-08-11T23:54:40.295Z,5.80
2023-08-11T23:57:12.268Z,5.87
2023-08-11T23:59:43.141Z,5.50
